Moretown, VT

9:56 PM EST on November 23, 2014 (GMT -0500)
South Hill Rd | Change Station
CLOSE
Current Station
Personal Weather Station
Location: Moretown, VT
Elevation: 1312 ft
Nearby Weather Stations

Elev 1312 ft 44.22 °N, 72.76 °W | Updated 97 days ago

Mostly Cloudy
Mostly Cloudy
41 °F
Feels Like 41 °F
N
6
Wind Variable Wind from SSE
Gusts 6 mph

Today
High -- | Low -- °F
--% Chance of Precip.
Yesterday
High -- | Low -- °F
Precip. -- in
6:56 AM 4:17 PM
Waxing Crescent, 3% visible
Pressure 30.11 in
Visibility 7.0 miles
Clouds Overcast 6000 ft
Dew Point 36 °F
Humidity 80%
Rainfall 0.00 in
Snow Depth Not available.
UV 0 out of 12
Pollen .10 out of 12
Air Quality Not available.
Flu Activity Not available.
METAR KMPV 240251Z AUTO 00000KT 7SM OVC060 04/02 A3008 RMK AO2 SLP194 T00390022 55011

More Conditions Fewer Conditions

Pressure 30.11 in
Visibility 7.0 miles
Clouds Overcast 6000 ft
Dew Point 36 °F
Humidity 80%
Rainfall 0.00 in
Snow Depth Not available.
UV 0 out of 12
Pollen .10 out of 12
Air Quality Not available.
Flu Activity Not available.
METAR KMPV 240251Z AUTO 00000KT 7SM OVC060 04/02 A3008 RMK AO2 SLP194 T00390022 55011

More Conditions Fewer Conditions

10-Day Weather Forecast

Almanac

Astronomy

Nov. 23, 2014 Rise Set
Actual Time
Civil Twilight
Nautical Twilight
Astronomical Twilight
Moon
Length of Visible Light
Length of Day
Tomorrow will be .
, % of the Moon is Illuminated

Today's Extremes

State Highs State Lows

Community

WunderPhotos

Upload Photos

1,773,257 photos uploaded!

WunderBlogs® & News

Nearby

Air Quality

  Air Quality AQ Index Pollutant
Not available.

Snow Depth

Station Depth Elevation

Earthquake Activity

City Distance Mag. Time & Date
Minimum magnitude displayed is 2.5.

Coastal Water Temperatures

Place Temperature

Nearby Weather Stations